sensor_id;sensor_type;location;lat;lon;timestamp;temperature;humidity
148;DHT22;142;50.652;12.216;2023-05-07T00:01:52;13.10;20.20
148;DHT22;142;50.652;12.216;2023-05-07T00:04:19;13.00;20.20
148;DHT22;142;50.652;12.216;2023-05-07T00:06:46;13.00;20.10
148;DHT22;142;50.652;12.216;2023-05-07T00:09:13;12.90;20.20
148;DHT22;142;50.652;12.216;2023-05-07T00:11:40;12.80;20.30
148;DHT22;142;50.652;12.216;2023-05-07T00:14:09;12.80;20.20
148;DHT22;142;50.652;12.216;2023-05-07T00:16:38;12.80;20.50
148;DHT22;142;50.652;12.216;2023-05-07T00:19:05;12.80;20.60
148;DHT22;142;50.652;12.216;2023-05-07T00:21:32;12.90;20.60
148;DHT22;142;50.652;12.216;2023-05-07T00:23:59;12.90;20.60
148;DHT22;142;50.652;12.216;2023-05-07T00:26:26;12.90;20.60
148;DHT22;142;50.652;12.216;2023-05-07T00:28:54;13.00;20.60
148;DHT22;142;50.652;12.216;2023-05-07T00:31:21;12.90;20.30
148;DHT22;142;50.652;12.216;2023-05-07T00:33:49;12.90;20.60
148;DHT22;142;50.652;12.216;2023-05-07T00:36:16;12.90;20.60
148;DHT22;142;50.652;12.216;2023-05-07T00:38:43;12.90;20.70
148;DHT22;142;50.652;12.216;2023-05-07T00:41:10;13.00;20.60
148;DHT22;142;50.652;12.216;2023-05-07T00:43:38;12.90;20.50
148;DHT22;142;50.652;12.216;2023-05-07T00:46:05;12.90;20.60
148;DHT22;142;50.652;12.216;2023-05-07T00:48:32;12.90;20.50
148;DHT22;142;50.652;12.216;2023-05-07T00:51:01;12.90;20.50
148;DHT22;142;50.652;12.216;2023-05-07T00:53:28;12.90;20.50
148;DHT22;142;50.652;12.216;2023-05-07T00:55:56;13.00;20.60
148;DHT22;142;50.652;12.216;2023-05-07T00:58:23;13.00;20.60
148;DHT22;142;50.652;12.216;2023-05-07T01:00:50;12.90;20.40
148;DHT22;142;50.652;12.216;2023-05-07T01:03:18;12.90;20.40
148;DHT22;142;50.652;12.216;2023-05-07T01:05:46;12.80;20.30
148;DHT22;142;50.652;12.216;2023-05-07T01:08:15;12.80;20.60
148;DHT22;142;50.652;12.216;2023-05-07T01:10:43;12.90;20.60
148;DHT22;142;50.652;12.216;2023-05-07T01:13:12;12.80;20.50
148;DHT22;142;50.652;12.216;2023-05-07T01:15:40;12.70;20.70
148;DHT22;142;50.652;12.216;2023-05-07T01:18:07;12.80;20.80
148;DHT22;142;50.652;12.216;2023-05-07T01:20:35;12.80;20.90
148;DHT22;142;50.652;12.216;2023-05-07T01:23:03;12.80;20.70
148;DHT22;142;50.652;12.216;2023-05-07T01:25:31;12.80;20.80
148;DHT22;142;50.652;12.216;2023-05-07T01:27:59;12.80;20.80
148;DHT22;142;50.652;12.216;2023-05-07T01:30:27;12.80;20.70
148;DHT22;142;50.652;12.216;2023-05-07T01:32:59;12.80;20.70
148;DHT22;142;50.652;12.216;2023-05-07T01:35:37;12.80;20.70
148;DHT22;142;50.652;12.216;2023-05-07T01:38:07;12.80;20.60
148;DHT22;142;50.652;12.216;2023-05-07T01:40:35;12.80;20.50
148;DHT22;142;50.652;12.216;2023-05-07T01:43:02;12.80;20.50
148;DHT22;142;50.652;12.216;2023-05-07T01:45:30;12.80;20.50
148;DHT22;142;50.652;12.216;2023-05-07T01:47:58;12.80;20.50
148;DHT22;142;50.652;12.216;2023-05-07T01:50:26;12.80;20.50
148;DHT22;142;50.652;12.216;2023-05-07T01:52:54;12.70;20.30
148;DHT22;142;50.652;12.216;2023-05-07T01:55:23;12.70;20.50
148;DHT22;142;50.652;12.216;2023-05-07T01:57:50;12.60;20.30
148;DHT22;142;50.652;12.216;2023-05-07T02:00:18;12.60;20.50
148;DHT22;142;50.652;12.216;2023-05-07T02:02:45;12.50;20.60
148;DHT22;142;50.652;12.216;2023-05-07T02:05:12;12.50;20.60
148;DHT22;142;50.652;12.216;2023-05-07T02:07:39;12.50;20.60
148;DHT22;142;50.652;12.216;2023-05-07T02:10:07;12.50;20.90
148;DHT22;142;50.652;12.216;2023-05-07T02:12:35;12.50;20.90
148;DHT22;142;50.652;12.216;2023-05-07T02:15:03;12.40;20.70
148;DHT22;142;50.652;12.216;2023-05-07T02:17:31;12.40;21.00
148;DHT22;142;50.652;12.216;2023-05-07T02:19:58;12.40;21.00
148;DHT22;142;50.652;12.216;2023-05-07T02:22:25;12.40;20.90
148;DHT22;142;50.652;12.216;2023-05-07T02:24:53;12.40;20.90
148;DHT22;142;50.652;12.216;2023-05-07T02:27:20;12.40;20.70
148;DHT22;142;50.652;12.216;2023-05-07T02:29:49;12.50;20.90
148;DHT22;142;50.652;12.216;2023-05-07T02:32:16;12.50;20.60
148;DHT22;142;50.652;12.216;2023-05-07T02:34:43;12.50;20.60
148;DHT22;142;50.652;12.216;2023-05-07T02:37:10;12.40;20.50
148;DHT22;142;50.652;12.216;2023-05-07T02:39:37;12.50;20.60
148;DHT22;142;50.652;12.216;2023-05-07T02:42:05;12.50;20.50
148;DHT22;142;50.652;12.216;2023-05-07T02:44:32;12.50;20.50
148;DHT22;142;50.652;12.216;2023-05-07T02:47:00;12.50;20.40
148;DHT22;142;50.652;12.216;2023-05-07T02:49:27;12.40;20.40
148;DHT22;142;50.652;12.216;2023-05-07T02:51:54;12.40;20.20
148;DHT22;142;50.652;12.216;2023-05-07T02:54:21;12.30;20.10
148;DHT22;142;50.652;12.216;2023-05-07T02:56:48;12.30;20.30
148;DHT22;142;50.652;12.216;2023-05-07T02:59:15;12.30;20.20
148;DHT22;142;50.652;12.216;2023-05-07T03:01:42;12.30;20.30
148;DHT22;142;50.652;12.216;2023-05-07T03:04:12;12.20;20.30
148;DHT22;142;50.652;12.216;2023-05-07T03:06:39;12.20;20.50
148;DHT22;142;50.652;12.216;2023-05-07T03:09:06;12.20;20.50
148;DHT22;142;50.652;12.216;2023-05-07T03:11:34;12.20;20.40
148;DHT22;142;50.652;12.216;2023-05-07T03:14:02;12.20;20.40
148;DHT22;142;50.652;12.216;2023-05-07T03:16:29;12.20;20.40
148;DHT22;142;50.652;12.216;2023-05-07T03:18:56;12.20;20.40
148;DHT22;142;50.652;12.216;2023-05-07T03:21:25;12.10;20.20
148;DHT22;142;50.652;12.216;2023-05-07T03:23:52;12.10;20.40
148;DHT22;142;50.652;12.216;2023-05-07T03:26:19;12.10;20.50
148;DHT22;142;50.652;12.216;2023-05-07T03:28:46;12.10;20.40
148;DHT22;142;50.652;12.216;2023-05-07T03:31:13;12.20;20.60
148;DHT22;142;50.652;12.216;2023-05-07T03:33:50;12.20;20.40
148;DHT22;142;50.652;12.216;2023-05-07T03:36:18;12.10;20.40
148;DHT22;142;50.652;12.216;2023-05-07T03:38:47;12.10;20.30
148;DHT22;142;50.652;12.216;2023-05-07T03:41:15;12.10;20.40
148;DHT22;142;50.652;12.216;2023-05-07T03:43:42;12.10;20.40
148;DHT22;142;50.652;12.216;2023-05-07T03:46:10;12.10;20.50
148;DHT22;142;50.652;12.216;2023-05-07T03:48:37;12.10;20.40
148;DHT22;142;50.652;12.216;2023-05-07T03:51:04;12.10;20.40
148;DHT22;142;50.652;12.216;2023-05-07T03:53:32;12.10;20.30
148;DHT22;142;50.652;12.216;2023-05-07T03:56:01;12.10;20.40
148;DHT22;142;50.652;12.216;2023-05-07T03:58:29;12.10;20.40
148;DHT22;142;50.652;12.216;2023-05-07T04:00:56;12.10;20.30
148;DHT22;142;50.652;12.216;2023-05-07T04:03:23;12.20;20.40
148;DHT22;142;50.652;12.216;2023-05-07T04:05:51;12.20;20.40
148;DHT22;142;50.652;12.216;2023-05-07T04:08:18;12.10;20.30
148;DHT22;142;50.652;12.216;2023-05-07T04:10:44;12.10;20.40
148;DHT22;142;50.652;12.216;2023-05-07T04:13:13;12.10;20.50
148;DHT22;142;50.652;12.216;2023-05-07T04:15:40;12.10;20.30
148;DHT22;142;50.652;12.216;2023-05-07T04:18:07;12.10;20.60
148;DHT22;142;50.652;12.216;2023-05-07T04:20:34;12.10;20.50
148;DHT22;142;50.652;12.216;2023-05-07T04:23:02;12.20;20.60
148;DHT22;142;50.652;12.216;2023-05-07T04:25:29;12.20;20.60
148;DHT22;142;50.652;12.216;2023-05-07T04:27:57;12.20;20.30
148;DHT22;142;50.652;12.216;2023-05-07T04:30:25;12.30;20.70
148;DHT22;142;50.652;12.216;2023-05-07T04:32:52;12.30;20.60
148;DHT22;142;50.652;12.216;2023-05-07T04:35:20;12.30;20.60
148;DHT22;142;50.652;12.216;2023-05-07T04:37:47;12.40;20.60
148;DHT22;142;50.652;12.216;2023-05-07T04:40:14;12.40;20.60
148;DHT22;142;50.652;12.216;2023-05-07T04:42:41;12.50;20.40
148;DHT22;142;50.652;12.216;2023-05-07T04:45:09;12.40;20.20
148;DHT22;142;50.652;12.216;2023-05-07T04:47:39;12.40;20.40
148;DHT22;142;50.652;12.216;2023-05-07T04:50:07;12.50;20.40
148;DHT22;142;50.652;12.216;2023-05-07T04:52:34;12.50;20.30
148;DHT22;142;50.652;12.216;2023-05-07T04:55:01;12.50;20.20
148;DHT22;142;50.652;12.216;2023-05-07T04:57:28;12.40;20.10
148;DHT22;142;50.652;12.216;2023-05-07T04:59:55;12.50;20.50
148;DHT22;142;50.652;12.216;2023-05-07T05:02:22;12.50;20.40
148;DHT22;142;50.652;12.216;2023-05-07T05:04:51;12.70;20.50
148;DHT22;142;50.652;12.216;2023-05-07T05:07:18;12.70;20.00
148;DHT22;142;50.652;12.216;2023-05-07T05:09:45;12.70;19.80
148;DHT22;142;50.652;12.216;2023-05-07T05:12:13;12.70;19.90
148;DHT22;142;50.652;12.216;2023-05-07T05:14:41;12.70;19.90
148;DHT22;142;50.652;12.216;2023-05-07T05:17:08;12.50;19.40
148;DHT22;142;50.652;12.216;2023-05-07T05:19:35;12.50;20.00
148;DHT22;142;50.652;12.216;2023-05-07T05:22:04;12.50;20.10
148;DHT22;142;50.652;12.216;2023-05-07T05:24:31;12.60;20.10
148;DHT22;142;50.652;12.216;2023-05-07T05:26:58;12.60;20.00
148;DHT22;142;50.652;12.216;2023-05-07T05:29:27;12.70;20.20
148;DHT22;142;50.652;12.216;2023-05-07T05:31:54;12.60;19.70
148;DHT22;142;50.652;12.216;2023-05-07T05:34:21;12.60;19.80
148;DHT22;142;50.652;12.216;2023-05-07T05:36:49;12.50;19.80
148;DHT22;142;50.652;12.216;2023-05-07T05:39:17;12.60;20.10
148;DHT22;142;50.652;12.216;2023-05-07T05:41:44;12.60;19.80
148;DHT22;142;50.652;12.216;2023-05-07T05:44:12;12.60;19.80
148;DHT22;142;50.652;12.216;2023-05-07T05:46:39;12.60;19.80
148;DHT22;142;50.652;12.216;2023-05-07T05:49:06;12.60;19.70
148;DHT22;142;50.652;12.216;2023-05-07T05:51:33;12.70;19.90
148;DHT22;142;50.652;12.216;2023-05-07T05:54:00;12.70;19.70
148;DHT22;142;50.652;12.216;2023-05-07T05:56:29;12.60;19.60
148;DHT22;142;50.652;12.216;2023-05-07T05:58:56;12.60;19.70
148;DHT22;142;50.652;12.216;2023-05-07T06:01:23;12.60;19.90
148;DHT22;142;50.652;12.216;2023-05-07T06:03:50;12.70;19.90
148;DHT22;142;50.652;12.216;2023-05-07T06:06:17;12.80;19.70
148;DHT22;142;50.652;12.216;2023-05-07T06:08:44;12.80;19.50
148;DHT22;142;50.652;12.216;2023-05-07T06:11:11;13.00;19.70
148;DHT22;142;50.652;12.216;2023-05-07T06:13:40;13.10;19.40
148;DHT22;142;50.652;12.216;2023-05-07T06:16:07;13.20;19.10
148;DHT22;142;50.652;12.216;2023-05-07T06:18:34;13.20;18.80
148;DHT22;142;50.652;12.216;2023-05-07T06:21:02;13.20;18.80
148;DHT22;142;50.652;12.216;2023-05-07T06:23:29;13.20;18.80
148;DHT22;142;50.652;12.216;2023-05-07T06:25:57;13.30;18.50
148;DHT22;142;50.652;12.216;2023-05-07T06:28:24;13.50;18.60
148;DHT22;142;50.652;12.216;2023-05-07T06:30:53;13.60;18.50
148;DHT22;142;50.652;12.216;2023-05-07T06:33:20;13.80;18.20
148;DHT22;142;50.652;12.216;2023-05-07T06:35:47;13.90;18.10
148;DHT22;142;50.652;12.216;2023-05-07T06:38:14;14.00;17.50
148;DHT22;142;50.652;12.216;2023-05-07T06:40:41;13.80;17.40
148;DHT22;142;50.652;12.216;2023-05-07T06:43:09;13.90;17.60
148;DHT22;142;50.652;12.216;2023-05-07T06:45:36;14.00;17.40
148;DHT22;142;50.652;12.216;2023-05-07T06:48:05;14.10;17.40
148;DHT22;142;50.652;12.216;2023-05-07T06:50:32;14.10;17.10
148;DHT22;142;50.652;12.216;2023-05-07T06:52:59;14.30;17.20
148;DHT22;142;50.652;12.216;2023-05-07T06:55:27;14.30;17.40
148;DHT22;142;50.652;12.216;2023-05-07T06:57:54;14.30;17.20
148;DHT22;142;50.652;12.216;2023-05-07T07:00:21;14.30;17.10
148;DHT22;142;50.652;12.216;2023-05-07T07:02:48;14.30;17.20
148;DHT22;142;50.652;12.216;2023-05-07T07:05:17;14.20;17.00
148;DHT22;142;50.652;12.216;2023-05-07T07:07:44;14.20;17.00
148;DHT22;142;50.652;12.216;2023-05-07T07:10:18;14.10;17.10
148;DHT22;142;50.652;12.216;2023-05-07T07:12:46;14.00;17.10
148;DHT22;142;50.652;12.216;2023-05-07T07:15:13;13.90;17.10
148;DHT22;142;50.652;12.216;2023-05-07T07:17:40;13.80;17.10
148;DHT22;142;50.652;12.216;2023-05-07T07:20:09;13.90;17.40
148;DHT22;142;50.652;12.216;2023-05-07T07:22:38;14.10;17.30
148;DHT22;142;50.652;12.216;2023-05-07T07:25:05;14.20;17.50
148;DHT22;142;50.652;12.216;2023-05-07T07:27:33;14.20;17.10
148;DHT22;142;50.652;12.216;2023-05-07T07:30:00;14.40;17.10
148;DHT22;142;50.652;12.216;2023-05-07T07:32:27;14.40;17.00
148;DHT22;142;50.652;12.216;2023-05-07T07:34:54;14.40;16.80
148;DHT22;142;50.652;12.216;2023-05-07T07:37:22;14.30;16.80
148;DHT22;142;50.652;12.216;2023-05-07T07:39:52;14.30;17.00
148;DHT22;142;50.652;12.216;2023-05-07T07:42:19;14.10;16.90
148;DHT22;142;50.652;12.216;2023-05-07T07:44:47;14.10;17.30
148;DHT22;142;50.652;12.216;2023-05-07T07:47:14;14.10;17.20
148;DHT22;142;50.652;12.216;2023-05-07T07:49:41;14.20;16.90
148;DHT22;142;50.652;12.216;2023-05-07T07:52:08;14.40;17.10
148;DHT22;142;50.652;12.216;2023-05-07T07:54:35;14.50;16.90
148;DHT22;142;50.652;12.216;2023-05-07T07:57:04;14.50;17.00
148;DHT22;142;50.652;12.216;2023-05-07T07:59:32;14.30;16.70
148;DHT22;142;50.652;12.216;2023-05-07T08:01:58;14.30;16.90
148;DHT22;142;50.652;12.216;2023-05-07T08:04:26;14.30;17.00
148;DHT22;142;50.652;12.216;2023-05-07T08:06:53;14.20;17.00
148;DHT22;142;50.652;12.216;2023-05-07T08:09:21;14.20;16.90
148;DHT22;142;50.652;12.216;2023-05-07T08:11:48;14.40;17.10
148;DHT22;142;50.652;12.216;2023-05-07T08:14:17;14.50;16.90
148;DHT22;142;50.652;12.216;2023-05-07T08:16:45;14.60;16.90
148;DHT22;142;50.652;12.216;2023-05-07T08:19:12;14.60;16.60
148;DHT22;142;50.652;12.216;2023-05-07T08:21:39;14.60;16.80
148;DHT22;142;50.652;12.216;2023-05-07T08:24:06;14.70;16.80
148;DHT22;142;50.652;12.216;2023-05-07T08:26:33;14.70;17.10
148;DHT22;142;50.652;12.216;2023-05-07T08:29:03;14.70;16.60
148;DHT22;142;50.652;12.216;2023-05-07T08:31:33;14.70;16.70
148;DHT22;142;50.652;12.216;2023-05-07T08:34:00;14.70;16.70
148;DHT22;142;50.652;12.216;2023-05-07T08:36:27;14.70;16.70
148;DHT22;142;50.652;12.216;2023-05-07T08:38:54;14.60;16.80
148;DHT22;142;50.652;12.216;2023-05-07T08:41:21;14.80;16.80
148;DHT22;142;50.652;12.216;2023-05-07T08:43:50;14.90;16.80
148;DHT22;142;50.652;12.216;2023-05-07T08:46:20;15.10;16.80
148;DHT22;142;50.652;12.216;2023-05-07T08:48:49;15.10;16.70
148;DHT22;142;50.652;12.216;2023-05-07T08:51:19;15.20;16.70
148;DHT22;142;50.652;12.216;2023-05-07T08:53:48;15.40;16.70
148;DHT22;142;50.652;12.216;2023-05-07T08:56:16;15.60;16.60
148;DHT22;142;50.652;12.216;2023-05-07T08:58:43;15.80;16.70
148;DHT22;142;50.652;12.216;2023-05-07T09:01:14;16.00;20.00
148;DHT22;142;50.652;12.216;2023-05-07T09:03:42;16.00;21.00
148;DHT22;142;50.652;12.216;2023-05-07T09:06:12;16.10;23.50
148;DHT22;142;50.652;12.216;2023-05-07T09:08:39;16.30;23.70
148;DHT22;142;50.652;12.216;2023-05-07T09:11:06;16.30;25.20
148;DHT22;142;50.652;12.216;2023-05-07T09:13:33;16.30;24.90
148;DHT22;142;50.652;12.216;2023-05-07T09:16:10;16.40;25.30
148;DHT22;142;50.652;12.216;2023-05-07T09:18:41;16.60;28.00
148;DHT22;142;50.652;12.216;2023-05-07T09:21:12;16.50;32.80
148;DHT22;142;50.652;12.216;2023-05-07T09:23:41;16.50;38.40
148;DHT22;142;50.652;12.216;2023-05-07T09:26:09;16.40;38.10
148;DHT22;142;50.652;12.216;2023-05-07T09:28:41;16.40;38.20
148;DHT22;142;50.652;12.216;2023-05-07T09:31:08;16.50;39.00
148;DHT22;142;50.652;12.216;2023-05-07T09:33:35;16.60;60.40
148;DHT22;142;50.652;12.216;2023-05-07T09:36:03;16.60;63.40
148;DHT22;142;50.652;12.216;2023-05-07T09:38:32;16.70;65.20
148;DHT22;142;50.652;12.216;2023-05-07T09:41:03;16.60;64.60
148;DHT22;142;50.652;12.216;2023-05-07T09:43:32;16.70;65.30
148;DHT22;142;50.652;12.216;2023-05-07T09:46:03;16.70;64.90
148;DHT22;142;50.652;12.216;2023-05-07T09:48:30;16.70;65.90
148;DHT22;142;50.652;12.216;2023-05-07T09:51:02;16.70;65.50
148;DHT22;142;50.652;12.216;2023-05-07T09:53:31;16.70;66.70
148;DHT22;142;50.652;12.216;2023-05-07T09:56:00;16.60;67.30
148;DHT22;142;50.652;12.216;2023-05-07T09:58:27;16.50;65.50
148;DHT22;142;50.652;12.216;2023-05-07T10:00:56;16.60;66.40
148;DHT22;142;50.652;12.216;2023-05-07T10:03:26;16.70;66.90
148;DHT22;142;50.652;12.216;2023-05-07T10:05:55;16.80;66.90
148;DHT22;142;50.652;12.216;2023-05-07T10:08:22;16.70;66.80
148;DHT22;142;50.652;12.216;2023-05-07T10:10:51;16.70;67.30
148;DHT22;142;50.652;12.216;2023-05-07T10:13:19;16.80;66.60
148;DHT22;142;50.652;12.216;2023-05-07T10:15:47;17.10;67.50
148;DHT22;142;50.652;12.216;2023-05-07T10:18:15;17.40;68.90
148;DHT22;142;50.652;12.216;2023-05-07T10:20:45;17.50;71.00
148;DHT22;142;50.652;12.216;2023-05-07T10:23:14;17.40;71.10
148;DHT22;142;50.652;12.216;2023-05-07T10:25:43;17.30;72.70
148;DHT22;142;50.652;12.216;2023-05-07T10:28:12;17.40;72.90
148;DHT22;142;50.652;12.216;2023-05-07T10:30:54;17.60;73.20
148;DHT22;142;50.652;12.216;2023-05-07T10:33:28;17.80;73.30
148;DHT22;142;50.652;12.216;2023-05-07T10:35:59;17.90;73.30
148;DHT22;142;50.652;12.216;2023-05-07T10:38:30;17.90;76.70
148;DHT22;142;50.652;12.216;2023-05-07T10:40:57;17.90;77.20
148;DHT22;142;50.652;12.216;2023-05-07T10:43:38;17.80;77.10
148;DHT22;142;50.652;12.216;2023-05-07T10:46:10;17.80;77.90
148;DHT22;142;50.652;12.216;2023-05-07T10:49:10;17.80;77.80
148;DHT22;142;50.652;12.216;2023-05-07T10:51:38;18.00;78.60
148;DHT22;142;50.652;12.216;2023-05-07T10:54:23;18.00;79.10
148;DHT22;142;50.652;12.216;2023-05-07T10:56:50;17.90;79.10
148;DHT22;142;50.652;12.216;2023-05-07T10:59:35;17.90;79.10
148;DHT22;142;50.652;12.216;2023-05-07T11:02:07;17.80;79.40
148;DHT22;142;50.652;12.216;2023-05-07T11:04:36;17.70;80.00
148;DHT22;142;50.652;12.216;2023-05-07T11:10:06;17.70;80.60
148;DHT22;142;50.652;12.216;2023-05-07T11:12:52;17.60;80.60
148;DHT22;142;50.652;12.216;2023-05-07T11:15:43;17.50;80.60
148;DHT22;142;50.652;12.216;2023-05-07T11:18:12;17.60;80.40
148;DHT22;142;50.652;12.216;2023-05-07T11:20:57;17.80;80.80
148;DHT22;142;50.652;12.216;2023-05-07T11:23:56;17.80;80.40
148;DHT22;142;50.652;12.216;2023-05-07T11:26:24;17.70;80.40
148;DHT22;142;50.652;12.216;2023-05-07T11:28:52;17.80;80.40
148;DHT22;142;50.652;12.216;2023-05-07T11:31:24;17.70;80.30
148;DHT22;142;50.652;12.216;2023-05-07T11:33:52;17.90;80.60
148;DHT22;142;50.652;12.216;2023-05-07T11:36:21;17.80;80.90
148;DHT22;142;50.652;12.216;2023-05-07T11:38:49;17.90;80.40
148;DHT22;142;50.652;12.216;2023-05-07T11:41:16;17.90;80.30
148;DHT22;142;50.652;12.216;2023-05-07T11:43:58;17.90;80.30
148;DHT22;142;50.652;12.216;2023-05-07T11:46:27;18.10;80.30
148;DHT22;142;50.652;12.216;2023-05-07T11:48:55;18.30;79.90
148;DHT22;142;50.652;12.216;2023-05-07T11:51:23;18.30;79.80
148;DHT22;142;50.652;12.216;2023-05-07T11:53:52;18.30;80.10
148;DHT22;142;50.652;12.216;2023-05-07T11:56:19;18.30;80.40
148;DHT22;142;50.652;12.216;2023-05-07T11:58:48;18.30;80.70
148;DHT22;142;50.652;12.216;2023-05-07T12:01:17;18.40;80.50
148;DHT22;142;50.652;12.216;2023-05-07T12:03:46;18.50;80.40
148;DHT22;142;50.652;12.216;2023-05-07T12:06:14;18.30;80.60
148;DHT22;142;50.652;12.216;2023-05-07T12:08:42;18.20;80.40
148;DHT22;142;50.652;12.216;2023-05-07T12:11:13;18.10;81.10
148;DHT22;142;50.652;12.216;2023-05-07T12:13:42;18.10;81.20
148;DHT22;142;50.652;12.216;2023-05-07T12:16:09;18.30;80.90
148;DHT22;142;50.652;12.216;2023-05-07T12:18:37;18.40;80.70
148;DHT22;142;50.652;12.216;2023-05-07T12:21:06;18.30;80.70
148;DHT22;142;50.652;12.216;2023-05-07T12:23:35;18.40;80.90
148;DHT22;142;50.652;12.216;2023-05-07T12:26:03;18.40;80.80
148;DHT22;142;50.652;12.216;2023-05-07T12:28:31;18.40;80.30
148;DHT22;142;50.652;12.216;2023-05-07T12:31:03;18.40;80.60
148;DHT22;142;50.652;12.216;2023-05-07T12:33:31;18.30;81.10
148;DHT22;142;50.652;12.216;2023-05-07T12:36:03;18.40;80.70
148;DHT22;142;50.652;12.216;2023-05-07T12:38:35;18.40;80.70
148;DHT22;142;50.652;12.216;2023-05-07T12:41:03;18.50;80.80
148;DHT22;142;50.652;12.216;2023-05-07T12:43:30;18.50;80.50
148;DHT22;142;50.652;12.216;2023-05-07T12:46:01;18.50;80.40
148;DHT22;142;50.652;12.216;2023-05-07T12:48:28;18.60;80.40
148;DHT22;142;50.652;12.216;2023-05-07T12:50:56;18.60;84.60
148;DHT22;142;50.652;12.216;2023-05-07T12:53:25;18.50;84.50
148;DHT22;142;50.652;12.216;2023-05-07T12:55:55;18.40;84.60
148;DHT22;142;50.652;12.216;2023-05-07T12:58:25;18.40;85.10
148;DHT22;142;50.652;12.216;2023-05-07T13:00:54;18.50;84.60
148;DHT22;142;50.652;12.216;2023-05-07T13:03:26;18.60;84.70
148;DHT22;142;50.652;12.216;2023-05-07T13:05:54;18.80;83.60
148;DHT22;142;50.652;12.216;2023-05-07T13:08:30;18.90;83.70
148;DHT22;142;50.652;12.216;2023-05-07T13:11:00;18.70;84.20
148;DHT22;142;50.652;12.216;2023-05-07T13:13:29;18.80;83.90
148;DHT22;142;50.652;12.216;2023-05-07T13:15:56;18.90;83.80
148;DHT22;142;50.652;12.216;2023-05-07T13:18:24;18.80;83.60
148;DHT22;142;50.652;12.216;2023-05-07T13:20:52;18.80;83.20
148;DHT22;142;50.652;12.216;2023-05-07T13:23:19;18.50;83.70
148;DHT22;142;50.652;12.216;2023-05-07T13:25:47;18.50;84.50
148;DHT22;142;50.652;12.216;2023-05-07T13:28:16;18.50;84.60
148;DHT22;142;50.652;12.216;2023-05-07T13:30:43;18.40;85.20
148;DHT22;142;50.652;12.216;2023-05-07T13:33:11;18.60;84.60
148;DHT22;142;50.652;12.216;2023-05-07T13:35:38;18.50;84.40
148;DHT22;142;50.652;12.216;2023-05-07T13:38:06;18.40;85.10
148;DHT22;142;50.652;12.216;2023-05-07T13:40:33;18.50;85.40
148;DHT22;142;50.652;12.216;2023-05-07T13:43:01;18.30;85.40
148;DHT22;142;50.652;12.216;2023-05-07T13:45:30;18.30;85.50
148;DHT22;142;50.652;12.216;2023-05-07T13:47:57;18.40;85.80
148;DHT22;142;50.652;12.216;2023-05-07T13:50:24;18.10;85.70
148;DHT22;142;50.652;12.216;2023-05-07T13:52:52;17.90;86.10
148;DHT22;142;50.652;12.216;2023-05-07T13:55:21;17.90;86.00
148;DHT22;142;50.652;12.216;2023-05-07T13:57:54;18.00;86.10
148;DHT22;142;50.652;12.216;2023-05-07T14:00:23;18.10;86.10
148;DHT22;142;50.652;12.216;2023-05-07T14:02:51;18.10;86.00
148;DHT22;142;50.652;12.216;2023-05-07T14:05:19;18.00;86.00
148;DHT22;142;50.652;12.216;2023-05-07T14:07:46;17.90;85.90
148;DHT22;142;50.652;12.216;2023-05-07T14:10:14;17.80;85.90
148;DHT22;142;50.652;12.216;2023-05-07T14:12:43;17.80;86.00
148;DHT22;142;50.652;12.216;2023-05-07T14:15:11;17.90;86.20
148;DHT22;142;50.652;12.216;2023-05-07T14:17:38;18.00;86.10
148;DHT22;142;50.652;12.216;2023-05-07T14:20:09;17.90;86.00
148;DHT22;142;50.652;12.216;2023-05-07T14:22:36;17.90;86.00
148;DHT22;142;50.652;12.216;2023-05-07T14:25:04;17.90;86.10
148;DHT22;142;50.652;12.216;2023-05-07T14:27:31;18.00;86.20
148;DHT22;142;50.652;12.216;2023-05-07T14:29:59;18.00;86.20
148;DHT22;142;50.652;12.216;2023-05-07T14:32:26;17.80;86.10
148;DHT22;142;50.652;12.216;2023-05-07T14:34:53;17.80;86.00
148;DHT22;142;50.652;12.216;2023-05-07T14:37:22;17.80;86.20
148;DHT22;142;50.652;12.216;2023-05-07T14:39:50;17.90;86.10
148;DHT22;142;50.652;12.216;2023-05-07T14:42:17;18.00;86.00
148;DHT22;142;50.652;12.216;2023-05-07T14:44:44;17.90;86.00
148;DHT22;142;50.652;12.216;2023-05-07T14:47:13;17.90;86.10
148;DHT22;142;50.652;12.216;2023-05-07T14:49:41;18.00;86.10
148;DHT22;142;50.652;12.216;2023-05-07T14:52:08;17.90;86.10
148;DHT22;142;50.652;12.216;2023-05-07T14:54:37;17.80;86.10
148;DHT22;142;50.652;12.216;2023-05-07T14:57:05;17.80;86.00
148;DHT22;142;50.652;12.216;2023-05-07T14:59:33;17.70;86.10
148;DHT22;142;50.652;12.216;2023-05-07T15:02:01;17.40;86.10
148;DHT22;142;50.652;12.216;2023-05-07T15:04:28;17.30;85.60
148;DHT22;142;50.652;12.216;2023-05-07T15:06:55;17.40;85.20
148;DHT22;142;50.652;12.216;2023-05-07T15:09:22;17.30;85.40
148;DHT22;142;50.652;12.216;2023-05-07T15:11:50;17.40;85.60
148;DHT22;142;50.652;12.216;2023-05-07T15:14:18;17.50;85.60
148;DHT22;142;50.652;12.216;2023-05-07T15:16:47;17.60;85.30
148;DHT22;142;50.652;12.216;2023-05-07T15:19:14;17.60;85.50
148;DHT22;142;50.652;12.216;2023-05-07T15:21:42;17.50;85.80
148;DHT22;142;50.652;12.216;2023-05-07T15:24:09;17.20;85.60
148;DHT22;142;50.652;12.216;2023-05-07T15:26:36;17.30;84.80
148;DHT22;142;50.652;12.216;2023-05-07T15:29:04;17.40;85.00
148;DHT22;142;50.652;12.216;2023-05-07T15:31:35;17.60;85.20
148;DHT22;142;50.652;12.216;2023-05-07T15:34:03;17.70;85.60
148;DHT22;142;50.652;12.216;2023-05-07T15:36:30;17.60;85.70
148;DHT22;142;50.652;12.216;2023-05-07T15:38:59;17.50;85.80
148;DHT22;142;50.652;12.216;2023-05-07T15:41:28;17.50;85.40
148;DHT22;142;50.652;12.216;2023-05-07T15:43:56;17.50;85.70
148;DHT22;142;50.652;12.216;2023-05-07T15:46:25;17.50;85.50
148;DHT22;142;50.652;12.216;2023-05-07T15:48:53;17.60;85.80
148;DHT22;142;50.652;12.216;2023-05-07T15:51:21;17.40;85.70
148;DHT22;142;50.652;12.216;2023-05-07T15:53:48;17.40;85.30
148;DHT22;142;50.652;12.216;2023-05-07T15:56:17;17.50;85.60
148;DHT22;142;50.652;12.216;2023-05-07T15:58:44;17.60;85.70
148;DHT22;142;50.652;12.216;2023-05-07T16:01:12;17.80;86.00
148;DHT22;142;50.652;12.216;2023-05-07T16:03:42;17.80;86.00
148;DHT22;142;50.652;12.216;2023-05-07T16:06:09;17.90;86.00
148;DHT22;142;50.652;12.216;2023-05-07T16:08:37;18.00;86.20
148;DHT22;142;50.652;12.216;2023-05-07T16:11:05;17.90;86.10
148;DHT22;142;50.652;12.216;2023-05-07T16:13:33;17.80;86.10
148;DHT22;142;50.652;12.216;2023-05-07T16:16:01;18.00;86.10
148;DHT22;142;50.652;12.216;2023-05-07T16:18:28;18.10;86.10
148;DHT22;142;50.652;12.216;2023-05-07T16:20:57;18.20;86.20
148;DHT22;142;50.652;12.216;2023-05-07T16:23:25;18.20;86.20
148;DHT22;142;50.652;12.216;2023-05-07T16:25:52;18.20;86.10
148;DHT22;142;50.652;12.216;2023-05-07T16:28:20;18.20;86.00